sensor_id;sensor_type;location;lat;lon;timestamp;pressure;altitude;pressure_sealevel;temperature;humidity
66021;BME280;52789;59.980;30.346;2023-04-25T00:01:57;100639.66;;;10.81;93.88
66021;BME280;52789;59.980;30.346;2023-04-25T00:04:22;100640.47;;;10.82;93.92
66021;BME280;52789;59.980;30.346;2023-04-25T00:06:48;100641.47;;;10.81;93.24
66021;BME280;52789;59.980;30.346;2023-04-25T00:09:13;100639.16;;;10.78;93.78
66021;BME280;52789;59.980;30.346;2023-04-25T00:11:39;100639.66;;;10.73;93.70
66021;BME280;52789;59.980;30.346;2023-04-25T00:14:05;100639.16;;;10.70;93.42
66021;BME280;52789;59.980;30.346;2023-04-25T00:16:31;100637.63;;;10.67;93.44
66021;BME280;52789;59.980;30.346;2023-04-25T00:18:59;100639.63;;;10.65;94.00
66021;BME280;52789;59.980;30.346;2023-04-25T00:21:24;100629.97;;;10.64;94.00
66021;BME280;52789;59.980;30.346;2023-04-25T00:23:52;100632.97;;;10.61;94.27
66021;BME280;52789;59.980;30.346;2023-04-25T00:26:17;100637.63;;;10.59;94.05
66021;BME280;52789;59.980;30.346;2023-04-25T00:28:43;100642.63;;;10.54;94.45
66021;BME280;52789;59.980;30.346;2023-04-25T00:31:08;100637.47;;;10.52;94.98
66021;BME280;52789;59.980;30.346;2023-04-25T00:33:33;100636.81;;;10.50;96.26
66021;BME280;52789;59.980;30.346;2023-04-25T00:35:59;100630.97;;;10.47;97.51
66021;BME280;52789;59.980;30.346;2023-04-25T00:38:24;100638.47;;;10.43;98.50
66021;BME280;52789;59.980;30.346;2023-04-25T00:40:49;100637.81;;;10.41;99.34
66021;BME280;52789;59.980;30.346;2023-04-25T00:43:15;100636.28;;;10.39;98.45
66021;BME280;52789;59.980;30.346;2023-04-25T00:45:40;100629.44;;;10.36;98.47
66021;BME280;52789;59.980;30.346;2023-04-25T00:48:05;100633.13;;;10.35;98.65
66021;BME280;52789;59.980;30.346;2023-04-25T00:50:32;100639.59;;;10.33;98.90
66021;BME280;52789;59.980;30.346;2023-04-25T00:52:58;100633.94;;;10.28;99.35
66021;BME280;52789;59.980;30.346;2023-04-25T00:55:23;100636.94;;;10.24;98.24
66021;BME280;52789;59.980;30.346;2023-04-25T00:57:50;100642.59;;;10.21;98.40
66021;BME280;52789;59.980;30.346;2023-04-25T01:00:15;100631.56;;;10.16;99.24
66021;BME280;52789;59.980;30.346;2023-04-25T01:02:41;100635.56;;;10.12;99.25
66021;BME280;52789;59.980;30.346;2023-04-25T01:05:07;100640.50;;;10.07;99.30
66021;BME280;52789;59.980;30.346;2023-04-25T01:07:34;100639.16;;;10.03;99.71
66021;BME280;52789;59.980;30.346;2023-04-25T01:09:59;100642.00;;;10.02;98.80
66021;BME280;52789;59.980;30.346;2023-04-25T01:12:24;100637.00;;;9.99;99.01
66021;BME280;52789;59.980;30.346;2023-04-25T01:14:50;100643.47;;;9.96;99.04
66021;BME280;52789;59.980;30.346;2023-04-25T01:17:16;100639.31;;;9.93;99.41
66021;BME280;52789;59.980;30.346;2023-04-25T01:19:42;100645.78;;;9.91;99.68
66021;BME280;52789;59.980;30.346;2023-04-25T01:22:17;100646.13;;;9.88;99.89
66021;BME280;52789;59.980;30.346;2023-04-25T01:24:48;100640.97;;;9.86;99.51
66021;BME280;52789;59.980;30.346;2023-04-25T01:27:21;100646.28;;;9.86;99.80
66021;BME280;52789;59.980;30.346;2023-04-25T01:29:47;100636.63;;;9.85;100.00
66021;BME280;52789;59.980;30.346;2023-04-25T01:32:15;100636.63;;;9.85;99.83
66021;BME280;52789;59.980;30.346;2023-04-25T01:34:40;100637.47;;;9.86;99.06
66021;BME280;52789;59.980;30.346;2023-04-25T01:37:06;100634.97;;;9.84;99.03
66021;BME280;52789;59.980;30.346;2023-04-25T01:39:31;100639.06;;;9.79;98.70
66021;BME280;52789;59.980;30.346;2023-04-25T01:41:58;100641.06;;;9.77;98.62
66021;BME280;52789;59.980;30.346;2023-04-25T01:44:23;100641.22;;;9.75;98.61
66021;BME280;52789;59.980;30.346;2023-04-25T01:46:48;100643.88;;;9.75;98.56
66021;BME280;52789;59.980;30.346;2023-04-25T01:49:14;100631.75;;;9.73;99.07
66021;BME280;52789;59.980;30.346;2023-04-25T01:51:39;100628.41;;;9.71;99.02
66021;BME280;52789;59.980;30.346;2023-04-25T01:54:05;100633.75;;;9.71;98.58
66021;BME280;52789;59.980;30.346;2023-04-25T01:56:30;100637.38;;;9.70;98.26
66021;BME280;52789;59.980;30.346;2023-04-25T01:58:56;100631.25;;;9.69;98.43
66021;BME280;52789;59.980;30.346;2023-04-25T02:01:22;100636.56;;;9.69;97.67
66021;BME280;52789;59.980;30.346;2023-04-25T02:03:47;100633.06;;;9.69;98.45
66021;BME280;52789;59.980;30.346;2023-04-25T02:06:12;100632.22;;;9.68;98.05
66021;BME280;52789;59.980;30.346;2023-04-25T02:08:38;100635.72;;;9.69;97.19
66021;BME280;52789;59.980;30.346;2023-04-25T02:11:03;100633.22;;;9.67;97.13
66021;BME280;52789;59.980;30.346;2023-04-25T02:13:28;100630.72;;;9.66;97.21
66021;BME280;52789;59.980;30.346;2023-04-25T02:15:54;100634.38;;;9.65;96.96
66021;BME280;52789;59.980;30.346;2023-04-25T02:18:19;100634.38;;;9.65;96.83
66021;BME280;52789;59.980;30.346;2023-04-25T02:20:46;100626.56;;;9.63;96.98
66021;BME280;52789;59.980;30.346;2023-04-25T02:23:11;100639.69;;;9.65;96.24
66021;BME280;52789;59.980;30.346;2023-04-25T02:25:37;100633.38;;;9.66;96.32
66021;BME280;52789;59.980;30.346;2023-04-25T02:28:02;100636.03;;;9.66;96.16
66021;BME280;52789;59.980;30.346;2023-04-25T02:30:28;100640.38;;;9.67;95.93
66021;BME280;52789;59.980;30.346;2023-04-25T02:32:53;100640.38;;;9.67;95.43
66021;BME280;52789;59.980;30.346;2023-04-25T02:35:19;100632.41;;;9.67;94.88
66021;BME280;52789;59.980;30.346;2023-04-25T02:37:44;100644.03;;;9.66;94.66
66021;BME280;52789;59.980;30.346;2023-04-25T02:40:10;100637.72;;;9.67;94.77
66021;BME280;52789;59.980;30.346;2023-04-25T02:42:35;100635.72;;;9.69;93.49
66021;BME280;52789;59.980;30.346;2023-04-25T02:45:01;100639.06;;;9.71;93.01
66021;BME280;52789;59.980;30.346;2023-04-25T02:47:28;100641.03;;;9.69;93.32
66021;BME280;52789;59.980;30.346;2023-04-25T02:49:54;100636.56;;;9.69;93.06
66021;BME280;52789;59.980;30.346;2023-04-25T02:52:19;100634.72;;;9.70;92.27
66021;BME280;52789;59.980;30.346;2023-04-25T02:54:46;100635.41;;;9.72;91.81
66021;BME280;52789;59.980;30.346;2023-04-25T02:57:11;100634.25;;;9.74;91.52
66021;BME280;52789;59.980;30.346;2023-04-25T02:59:37;100626.25;;;9.74;91.15
66021;BME280;52789;59.980;30.346;2023-04-25T03:02:02;100625.94;;;9.77;90.66
66021;BME280;52789;59.980;30.346;2023-04-25T03:04:27;100630.28;;;9.78;90.72
66021;BME280;52789;59.980;30.346;2023-04-25T03:06:53;100625.78;;;9.79;90.22
66021;BME280;52789;59.980;30.346;2023-04-25T03:09:18;100634.75;;;9.78;88.13
66021;BME280;52789;59.980;30.346;2023-04-25T03:11:44;100634.44;;;9.81;88.72
66021;BME280;52789;59.980;30.346;2023-04-25T03:14:09;100637.75;;;9.83;88.47
66021;BME280;52789;59.980;30.346;2023-04-25T03:16:35;100644.44;;;9.87;88.25
66021;BME280;52789;59.980;30.346;2023-04-25T03:19:00;100639.63;;;9.90;88.01
66021;BME280;52789;59.980;30.346;2023-04-25T03:21:25;100647.13;;;9.95;87.35
66021;BME280;52789;59.980;30.346;2023-04-25T03:23:52;100643.66;;;10.03;86.39
66021;BME280;52789;59.980;30.346;2023-04-25T03:26:17;100644.66;;;10.10;86.07
66021;BME280;52789;59.980;30.346;2023-04-25T03:28:43;100652.91;;;10.24;85.55
66021;BME280;52789;59.980;30.346;2023-04-25T03:31:08;100652.94;;;10.41;84.78
66021;BME280;52789;59.980;30.346;2023-04-25T03:33:34;100653.13;;;10.47;83.26
66021;BME280;52789;59.980;30.346;2023-04-25T03:35:59;100647.63;;;10.57;82.59
66021;BME280;52789;59.980;30.346;2023-04-25T03:38:24;100653.13;;;10.55;81.54
66021;BME280;52789;59.980;30.346;2023-04-25T03:40:51;100656.44;;;10.49;81.71
66021;BME280;52789;59.980;30.346;2023-04-25T03:43:17;100655.94;;;10.46;81.70
66021;BME280;52789;59.980;30.346;2023-04-25T03:45:42;100657.94;;;10.44;82.08
66021;BME280;52789;59.980;30.346;2023-04-25T03:48:08;100654.63;;;10.42;81.92
66021;BME280;52789;59.980;30.346;2023-04-25T03:50:33;100668.59;;;10.44;81.43
66021;BME280;52789;59.980;30.346;2023-04-25T03:52:59;100655.28;;;10.52;81.22
66021;BME280;52789;59.980;30.346;2023-04-25T03:55:24;100665.59;;;10.55;81.42
66021;BME280;52789;59.980;30.346;2023-04-25T03:57:50;100662.09;;;10.54;80.49
66021;BME280;52789;59.980;30.346;2023-04-25T04:00:15;100655.28;;;10.52;80.38
66021;BME280;52789;59.980;30.346;2023-04-25T04:02:41;100662.28;;;10.53;80.23
66021;BME280;52789;59.980;30.346;2023-04-25T04:05:06;100663.09;;;10.53;80.04
66021;BME280;52789;59.980;30.346;2023-04-25T04:07:32;100661.44;;;10.52;79.70
66021;BME280;52789;59.980;30.346;2023-04-25T04:09:58;100661.44;;;10.52;79.52
66021;BME280;52789;59.980;30.346;2023-04-25T04:12:23;100663.28;;;10.52;79.42
66021;BME280;52789;59.980;30.346;2023-04-25T04:14:49;100665.09;;;10.51;79.41
66021;BME280;52789;59.980;30.346;2023-04-25T04:17:14;100660.94;;;10.49;79.10
66021;BME280;52789;59.980;30.346;2023-04-25T04:19:39;100663.94;;;10.54;78.74
66021;BME280;52789;59.980;30.346;2023-04-25T04:22:05;100668.09;;;10.57;78.45
66021;BME280;52789;59.980;30.346;2023-04-25T04:24:30;100657.09;;;10.60;77.99
66021;BME280;52789;59.980;30.346;2023-04-25T04:26:55;100653.94;;;10.64;77.66
66021;BME280;52789;59.980;30.346;2023-04-25T04:29:22;100660.97;;;10.73;77.47
66021;BME280;52789;59.980;30.346;2023-04-25T04:31:51;100652.31;;;10.79;77.30
66021;BME280;52789;59.980;30.346;2023-04-25T04:34:17;100660.63;;;10.84;76.78
66021;BME280;52789;59.980;30.346;2023-04-25T04:36:46;100661.94;;;10.89;76.49
66021;BME280;52789;59.980;30.346;2023-04-25T04:39:12;100661.63;;;10.92;76.01
66021;BME280;52789;59.980;30.346;2023-04-25T04:41:38;100656.28;;;10.92;75.64
66021;BME280;52789;59.980;30.346;2023-04-25T04:44:03;100659.94;;;10.91;75.97
66021;BME280;52789;59.980;30.346;2023-04-25T04:46:28;100662.44;;;10.92;75.86
66021;BME280;52789;59.980;30.346;2023-04-25T04:48:55;100664.44;;;10.98;75.16
66021;BME280;52789;59.980;30.346;2023-04-25T04:51:21;100673.94;;;11.09;75.09
66021;BME280;52789;59.980;30.346;2023-04-25T04:53:46;100668.91;;;11.22;74.59
66021;BME280;52789;59.980;30.346;2023-04-25T04:56:12;100659.41;;;11.36;74.10
66021;BME280;52789;59.980;30.346;2023-04-25T04:58:37;100663.50;;;11.55;73.86
66021;BME280;52789;59.980;30.346;2023-04-25T05:01:02;100662.63;;;11.70;73.82
66021;BME280;52789;59.980;30.346;2023-04-25T05:03:28;100660.94;;;11.86;72.78
66021;BME280;52789;59.980;30.346;2023-04-25T05:05:53;100663.72;;;12.00;72.86
66021;BME280;52789;59.980;30.346;2023-04-25T05:08:18;100652.63;;;12.12;72.46
66021;BME280;52789;59.980;30.346;2023-04-25T05:10:44;100654.63;;;12.18;71.99
66021;BME280;52789;59.980;30.346;2023-04-25T05:13:09;100653.63;;;12.19;71.14
66021;BME280;52789;59.980;30.346;2023-04-25T05:15:34;100659.78;;;12.19;70.59
66021;BME280;52789;59.980;30.346;2023-04-25T05:18:00;100662.56;;;12.26;70.66
66021;BME280;52789;59.980;30.346;2023-04-25T05:20:26;100665.84;;;12.36;69.15
66021;BME280;52789;59.980;30.346;2023-04-25T05:22:51;100664.09;;;12.51;69.67
66021;BME280;52789;59.980;30.346;2023-04-25T05:25:17;100658.94;;;12.73;69.74
66021;BME280;52789;59.980;30.346;2023-04-25T05:27:42;100660.06;;;12.93;68.31
66021;BME280;52789;59.980;30.346;2023-04-25T05:30:08;100655.91;;;13.13;67.46
66021;BME280;52789;59.980;30.346;2023-04-25T05:32:34;100643.75;;;13.25;64.58
66021;BME280;52789;59.980;30.346;2023-04-25T05:35:00;100648.03;;;13.35;62.99
66021;BME280;52789;59.980;30.346;2023-04-25T05:37:26;100649.03;;;13.48;65.06
66021;BME280;52789;59.980;30.346;2023-04-25T05:39:51;100651.34;;;13.66;64.58
66021;BME280;52789;59.980;30.346;2023-04-25T05:42:16;100654.84;;;13.81;64.61
66021;BME280;52789;59.980;30.346;2023-04-25T05:44:42;100655.78;;;13.88;61.62
66021;BME280;52789;59.980;30.346;2023-04-25T05:47:07;100651.25;;;13.89;62.88
66021;BME280;52789;59.980;30.346;2023-04-25T05:49:33;100649.66;;;13.94;64.05
66021;BME280;52789;59.980;30.346;2023-04-25T05:51:58;100649.75;;;14.01;64.12
66021;BME280;52789;59.980;30.346;2023-04-25T05:54:24;100646.94;;;14.09;60.81
66021;BME280;52789;59.980;30.346;2023-04-25T05:56:49;100649.25;;;14.12;61.95
66021;BME280;52789;59.980;30.346;2023-04-25T05:59:14;100647.03;;;14.16;59.68
66021;BME280;52789;59.980;30.346;2023-04-25T06:01:41;100649.16;;;14.20;60.76
66021;BME280;52789;59.980;30.346;2023-04-25T06:04:07;100642.97;;;14.20;60.05
66021;BME280;52789;59.980;30.346;2023-04-25T06:06:32;100650.38;;;14.18;58.79
66021;BME280;52789;59.980;30.346;2023-04-25T06:08:57;100647.94;;;14.23;58.69
66021;BME280;52789;59.980;30.346;2023-04-25T06:11:23;100645.78;;;14.33;58.02
66021;BME280;52789;59.980;30.346;2023-04-25T06:13:48;100652.59;;;14.50;58.36
66021;BME280;52789;59.980;30.346;2023-04-25T06:16:13;100657.13;;;14.71;58.02
66021;BME280;52789;59.980;30.346;2023-04-25T06:18:45;100656.91;;;14.94;56.81
66021;BME280;52789;59.980;30.346;2023-04-25T06:21:13;100659.97;;;15.12;55.52
66021;BME280;52789;59.980;30.346;2023-04-25T06:23:39;100644.94;;;15.18;55.70
66021;BME280;52789;59.980;30.346;2023-04-25T06:26:05;100652.00;;;15.26;53.27
66021;BME280;52789;59.980;30.346;2023-04-25T06:28:30;100651.38;;;15.24;50.69
66021;BME280;52789;59.980;30.346;2023-04-25T06:30:58;100645.13;;;15.16;51.06
66021;BME280;52789;59.980;30.346;2023-04-25T06:33:24;100645.53;;;15.13;51.45
66021;BME280;52789;59.980;30.346;2023-04-25T06:35:50;100644.31;;;15.16;50.72
66021;BME280;52789;59.980;30.346;2023-04-25T06:38:15;100651.53;;;15.15;51.23
66021;BME280;52789;59.980;30.346;2023-04-25T06:40:40;100645.56;;;15.20;52.45
66021;BME280;52789;59.980;30.346;2023-04-25T06:43:06;100640.19;;;15.20;51.79
66021;BME280;52789;59.980;30.346;2023-04-25T06:45:31;100645.38;;;15.22;52.53
66021;BME280;52789;59.980;30.346;2023-04-25T06:47:56;100642.25;;;15.18;51.47
66021;BME280;52789;59.980;30.346;2023-04-25T06:50:22;100640.78;;;15.15;50.58
66021;BME280;52789;59.980;30.346;2023-04-25T06:52:47;100635.03;;;15.18;51.05
66021;BME280;52789;59.980;30.346;2023-04-25T06:55:12;100632.34;;;15.18;50.12
66021;BME280;52789;59.980;30.346;2023-04-25T06:57:37;100641.41;;;15.17;51.42
66021;BME280;52789;59.980;30.346;2023-04-25T07:00:03;100643.03;;;15.12;50.48
66021;BME280;52789;59.980;30.346;2023-04-25T07:02:30;100640.78;;;15.15;51.84
66021;BME280;52789;59.980;30.346;2023-04-25T07:04:56;100640.25;;;15.27;51.99
66021;BME280;52789;59.980;30.346;2023-04-25T07:07:24;100632.50;;;15.38;51.35
66021;BME280;52789;59.980;30.346;2023-04-25T07:09:50;100623.03;;;15.49;50.86
66021;BME280;52789;59.980;30.346;2023-04-25T07:12:15;100622.34;;;15.62;51.16
66021;BME280;52789;59.980;30.346;2023-04-25T07:14:40;100627.34;;;15.71;49.33
66021;BME280;52789;59.980;30.346;2023-04-25T07:17:06;100616.00;;;15.83;48.77
66021;BME280;52789;59.980;30.346;2023-04-25T07:19:32;100630.34;;;15.96;48.44
66021;BME280;52789;59.980;30.346;2023-04-25T07:21:58;100625.41;;;16.13;48.52
66021;BME280;52789;59.980;30.346;2023-04-25T07:24:23;100629.59;;;16.22;47.37
66021;BME280;52789;59.980;30.346;2023-04-25T07:26:49;100628.56;;;16.30;48.92
66021;BME280;52789;59.980;30.346;2023-04-25T07:29:15;100624.66;;;16.32;46.12
66021;BME280;52789;59.980;30.346;2023-04-25T07:31:43;100620.13;;;16.46;44.61
66021;BME280;52789;59.980;30.346;2023-04-25T07:34:08;100622.63;;;16.61;45.17
66021;BME280;52789;59.980;30.346;2023-04-25T07:36:34;100621.41;;;16.70;43.64
66021;BME280;52789;59.980;30.346;2023-04-25T07:38:59;100617.09;;;16.82;43.67
66021;BME280;52789;59.980;30.346;2023-04-25T07:41:24;100620.59;;;16.89;43.24
66021;BME280;52789;59.980;30.346;2023-04-25T07:43:59;100624.72;;;16.98;44.61
66021;BME280;52789;59.980;30.346;2023-04-25T07:46:25;100619.56;;;17.03;42.07
66021;BME280;52789;59.980;30.346;2023-04-25T07:48:51;100623.91;;;17.11;42.38
66021;BME280;52789;59.980;30.346;2023-04-25T07:51:16;100623.69;;;17.26;41.36
66021;BME280;52789;59.980;30.346;2023-04-25T07:53:45;100622.19;;;17.43;40.41
66021;BME280;52789;59.980;30.346;2023-04-25T07:56:11;100615.53;;;17.52;40.18
66021;BME280;52789;59.980;30.346;2023-04-25T07:58:36;100625.47;;;17.65;39.47
66021;BME280;52789;59.980;30.346;2023-04-25T08:01:01;100621.31;;;17.76;38.43
66021;BME280;52789;59.980;30.346;2023-04-25T08:03:27;100624.38;;;17.86;38.34
66021;BME280;52789;59.980;30.346;2023-04-25T08:05:52;100623.72;;;17.97;37.97
66021;BME280;52789;59.980;30.346;2023-04-25T08:08:17;100624.50;;;18.04;36.86
66021;BME280;52789;59.980;30.346;2023-04-25T08:10:43;100630.69;;;18.11;34.80
66021;BME280;52789;59.980;30.346;2023-04-25T08:13:08;100620.28;;;18.15;35.83
66021;BME280;52789;59.980;30.346;2023-04-25T08:15:33;100622.97;;;18.15;35.26
66021;BME280;52789;59.980;30.346;2023-04-25T08:17:59;100622.13;;;18.21;34.43
66021;BME280;52789;59.980;30.346;2023-04-25T08:20:24;100616.28;;;18.31;34.67
66021;BME280;52789;59.980;30.346;2023-04-25T08:22:50;100622.44;;;18.38;32.67
66021;BME280;52789;59.980;30.346;2023-04-25T08:25:15;100620.09;;;18.48;34.75
66021;BME280;52789;59.980;30.346;2023-04-25T08:27:41;100623.16;;;18.58;33.24
66021;BME280;52789;59.980;30.346;2023-04-25T08:30:07;100626.03;;;18.63;33.08
66021;BME280;52789;59.980;30.346;2023-04-25T08:32:34;100624.78;;;18.66;33.79
66021;BME280;52789;59.980;30.346;2023-04-25T08:34:59;100625.38;;;18.68;33.11
66021;BME280;52789;59.980;30.346;2023-04-25T08:37:24;100620.75;;;18.75;33.14
66021;BME280;52789;59.980;30.346;2023-04-25T08:39:49;100616.53;;;18.85;32.88
66021;BME280;52789;59.980;30.346;2023-04-25T08:42:19;100626.88;;;18.88;32.87
66021;BME280;52789;59.980;30.346;2023-04-25T08:44:47;100621.94;;;18.85;32.00
66021;BME280;52789;59.980;30.346;2023-04-25T08:47:13;100619.00;;;18.87;32.47
66021;BME280;52789;59.980;30.346;2023-04-25T08:49:39;100627.94;;;18.87;32.51
66021;BME280;52789;59.980;30.346;2023-04-25T08:52:06;100616.91;;;18.89;31.44
66021;BME280;52789;59.980;30.346;2023-04-25T08:54:32;100616.63;;;18.97;32.47
66021;BME280;52789;59.980;30.346;2023-04-25T08:57:01;100622.19;;;19.02;31.01
66021;BME280;52789;59.980;30.346;2023-04-25T08:59:27;100605.28;;;19.13;31.07
66021;BME280;52789;59.980;30.346;2023-04-25T09:01:52;100610.38;;;19.22;30.19
66021;BME280;52789;59.980;30.346;2023-04-25T09:04:17;100621.47;;;19.13;31.26
66021;BME280;52789;59.980;30.346;2023-04-25T09:06:43;100613.78;;;18.92;31.78
66021;BME280;52789;59.980;30.346;2023-04-25T09:09:09;100617.97;;;18.88;31.68
66021;BME280;52789;59.980;30.346;2023-04-25T09:11:36;100608.09;;;19.00;30.05
66021;BME280;52789;59.980;30.346;2023-04-25T09:14:17;100611.22;;;19.22;31.11
66021;BME280;52789;59.980;30.346;2023-04-25T09:19:26;100605.78;;;19.65;29.33
66021;BME280;52789;59.980;30.346;2023-04-25T09:21:55;100617.28;;;19.79;29.95
66021;BME280;52789;59.980;30.346;2023-04-25T09:24:31;100609.91;;;19.86;29.80
66021;BME280;52789;59.980;30.346;2023-04-25T09:26:57;100600.44;;;19.95;29.14
66021;BME280;52789;59.980;30.346;2023-04-25T09:29:34;100602.00;;;20.03;28.91
66021;BME280;52789;59.980;30.346;2023-04-25T09:32:14;100603.09;;;20.14;28.62
66021;BME280;52789;59.980;30.346;2023-04-25T09:34:40;100603.09;;;20.14;28.99
66021;BME280;52789;59.980;30.346;2023-04-25T09:37:08;100601.53;;;20.06;28.97
66021;BME280;52789;59.980;30.346;2023-04-25T09:39:33;100603.34;;;19.94;28.63
66021;BME280;52789;59.980;30.346;2023-04-25T09:41:58;100605.41;;;19.98;29.67
66021;BME280;52789;59.980;30.346;2023-04-25T09:44:24;100606.38;;;20.16;29.30
66021;BME280;52789;59.980;30.346;2023-04-25T09:46:50;100604.94;;;20.31;29.52
66021;BME280;52789;59.980;30.346;2023-04-25T09:49:19;100595.94;;;20.49;28.96
66021;BME280;52789;59.980;30.346;2023-04-25T09:51:57;100611.28;;;20.55;28.17
66021;BME280;52789;59.980;30.346;2023-04-25T09:54:26;100609.56;;;20.42;29.07
66021;BME280;52789;59.980;30.346;2023-04-25T09:56:52;100620.63;;;20.23;28.07
66021;BME280;52789;59.980;30.346;2023-04-25T09:59:21;100606.13;;;20.05;28.73
66021;BME280;52789;59.980;30.346;2023-04-25T10:01:48;100611.41;;;20.00;28.34
66021;BME280;52789;59.980;30.346;2023-04-25T10:04:13;100602.41;;;20.18;29.43
66021;BME280;52789;59.980;30.346;2023-04-25T10:06:41;100613.56;;;20.40;28.57
66021;BME280;52789;59.980;30.346;2023-04-25T10:09:08;100614.09;;;20.60;27.74
66021;BME280;52789;59.980;30.346;2023-04-25T10:11:33;100610.84;;;20.82;28.12
66021;BME280;52789;59.980;30.346;2023-04-25T10:14:00;100612.25;;;20.96;27.76
66021;BME280;52789;59.980;30.346;2023-04-25T10:16:25;100612.50;;;21.06;28.51
66021;BME280;52789;59.980;30.346;2023-04-25T10:18:51;100612.50;;;20.94;28.47
66021;BME280;52789;59.980;30.346;2023-04-25T10:21:16;100614.59;;;20.81;28.10
66021;BME280;52789;59.980;30.346;2023-04-25T10:23:42;100616.47;;;20.68;27.04
66021;BME280;52789;59.980;30.346;2023-04-25T10:26:08;100604.00;;;20.67;27.50
66021;BME280;52789;59.980;30.346;2023-04-25T10:28:56;100607.69;;;20.85;27.21
66021;BME280;52789;59.980;30.346;2023-04-25T10:31:26;100603.56;;;20.94;28.04
66021;BME280;52789;59.980;30.346;2023-04-25T10:33:51;100607.22;;;20.88;27.22
66021;BME280;52789;59.980;30.346;2023-04-25T10:36:18;100607.78;;;20.90;27.72
66021;BME280;52789;59.980;30.346;2023-04-25T10:38:43;100615.78;;;20.85;27.63
66021;BME280;52789;59.980;30.346;2023-04-25T10:41:10;100617.06;;;20.70;27.87
66021;BME280;52789;59.980;30.346;2023-04-25T10:43:42;100629.50;;;20.60;27.49
66021;BME280;52789;59.980;30.346;2023-04-25T10:46:14;100621.09;;;20.50;28.06
66021;BME280;52789;59.980;30.346;2023-04-25T10:48:43;100617.53;;;20.37;27.82
66021;BME280;52789;59.980;30.346;2023-04-25T10:51:10;100615.75;;;20.31;28.03
66021;BME280;52789;59.980;30.346;2023-04-25T10:53:36;100631.28;;;20.36;28.18
66021;BME280;52789;59.980;30.346;2023-04-25T10:58:41;100617.75;;;20.78;27.26
66021;BME280;52789;59.980;30.346;2023-04-25T11:01:06;100623.44;;;20.88;27.29
66021;BME280;52789;59.980;30.346;2023-04-25T11:03:32;100625.69;;;20.91;27.34
66021;BME280;52789;59.980;30.346;2023-04-25T11:05:57;100631.56;;;20.88;27.37
66021;BME280;52789;59.980;30.346;2023-04-25T11:11:08;100623.31;;;20.94;27.55
66021;BME280;52789;59.980;30.346;2023-04-25T11:13:34;100621.44;;;20.95;27.44
66021;BME280;52789;59.980;30.346;2023-04-25T11:15:59;100617.56;;;20.91;27.17
66021;BME280;52789;59.980;30.346;2023-04-25T11:18:26;100625.69;;;20.91;27.69
66021;BME280;52789;59.980;30.346;2023-04-25T11:20:51;100628.28;;;20.86;27.37
66021;BME280;52789;59.980;30.346;2023-04-25T11:23:16;100624.94;;;20.72;27.18
66021;BME280;52789;59.980;30.346;2023-04-25T11:25:42;100623.88;;;20.73;27.89
66021;BME280;52789;59.980;30.346;2023-04-25T11:28:07;100618.16;;;20.93;28.11
66021;BME280;52789;59.980;30.346;2023-04-25T11:30:33;100623.47;;;21.23;27.13
66021;BME280;52789;59.980;30.346;2023-04-25T11:32:58;100625.00;;;21.54;27.03
66021;BME280;52789;59.980;30.346;2023-04-25T11:35:24;100617.41;;;21.79;26.46
66021;BME280;52789;59.980;30.346;2023-04-25T11:37:50;100619.25;;;21.90;26.35
66021;BME280;52789;59.980;30.346;2023-04-25T11:40:16;100620.25;;;21.61;25.70
66021;BME280;52789;59.980;30.346;2023-04-25T11:42:45;100623.13;;;21.43;26.36
66021;BME280;52789;59.980;30.346;2023-04-25T11:45:11;100623.09;;;21.19;25.66
66021;BME280;52789;59.980;30.346;2023-04-25T11:47:37;100618.63;;;21.01;26.58
66021;BME280;52789;59.980;30.346;2023-04-25T11:50:03;100619.69;;;20.89;26.29
66021;BME280;52789;59.980;30.346;2023-04-25T11:52:38;100614.16;;;20.84;26.13
66021;BME280;52789;59.980;30.346;2023-04-25T11:55:14;100610.16;;;20.98;26.38
66021;BME280;52789;59.980;30.346;2023-04-25T11:57:39;100618.28;;;21.21;26.20
66021;BME280;52789;59.980;30.346;2023-04-25T12:00:12;100624.91;;;21.25;26.12
66021;BME280;52789;59.980;30.346;2023-04-25T12:02:41;100623.59;;;21.16;26.04
66021;BME280;52789;59.980;30.346;2023-04-25T12:05:08;100620.03;;;21.04;25.82
66021;BME280;52789;59.980;30.346;2023-04-25T12:07:34;100612.75;;;20.93;26.84
66021;BME280;52789;59.980;30.346;2023-04-25T12:09:59;100607.56;;;20.91;26.81
66021;BME280;52789;59.980;30.346;2023-04-25T12:12:28;100609.69;;;20.89;27.00
66021;BME280;52789;59.980;30.346;2023-04-25T12:14:57;100601.31;;;20.91;26.96
66021;BME280;52789;59.980;30.346;2023-04-25T12:17:33;100597.78;;;20.90;26.10
66021;BME280;52789;59.980;30.346;2023-04-25T12:19:58;100604.38;;;20.94;25.80
66021;BME280;52789;59.980;30.346;2023-04-25T12:22:24;100596.25;;;21.06;25.70
66021;BME280;52789;59.980;30.346;2023-04-25T12:24:50;100594.97;;;21.32;26.17
66021;BME280;52789;59.980;30.346;2023-04-25T12:27:16;100592.00;;;21.57;25.51
66021;BME280;52789;59.980;30.346;2023-04-25T12:29:53;100595.38;;;21.64;25.14
66021;BME280;52789;59.980;30.346;2023-04-25T12:32:20;100601.19;;;21.56;25.34
66021;BME280;52789;59.980;30.346;2023-04-25T12:34:45;100604.50;;;21.34;25.86
66021;BME280;52789;59.980;30.346;2023-04-25T12:37:11;100584.84;;;21.16;25.85
66021;BME280;52789;59.980;30.346;2023-04-25T12:39:36;100591.31;;;21.03;26.14
66021;BME280;52789;59.980;30.346;2023-04-25T12:42:02;100598.25;;;20.99;26.08
66021;BME280;52789;59.980;30.346;2023-04-25T12:44:28;100593.78;;;21.04;26.33
66021;BME280;52789;59.980;30.346;2023-04-25T12:46:53;100592.00;;;21.10;26.16